createdAt,value
2023-04-08T00:00:07.785Z,101086.84
2023-04-08T00:05:29.746Z,101097.09
2023-04-08T00:10:51.590Z,101097.94
2023-04-08T00:16:13.513Z,101101.34
2023-04-08T00:21:35.453Z,101102.22
2023-04-08T00:26:57.346Z,101094.53
2023-04-08T00:32:19.262Z,101097.94
2023-04-08T00:37:41.207Z,101097.94
2023-04-08T00:43:03.116Z,101097.88
2023-04-08T00:48:25.197Z,101105.59
2023-04-08T00:53:47.288Z,101107.31
2023-04-08T00:59:09.313Z,101104.69
2023-04-08T01:04:56.019Z,101118.41
2023-04-08T01:10:22.543Z,101120.94
2023-04-08T01:15:45.353Z,101120.84
2023-04-08T01:21:08.044Z,101123.47
2023-04-08T01:26:30.871Z,101120.03
2023-04-08T01:31:54.085Z,101124.25
2023-04-08T01:37:16.710Z,101115.69
2023-04-08T01:42:40.635Z,101117.38
2023-04-08T01:48:03.435Z,101118.22
2023-04-08T01:53:25.586Z,101132.72
2023-04-08T01:58:52.713Z,101141.16
2023-04-08T02:04:14.992Z,101144.56
2023-04-08T02:09:37.089Z,101145.38
2023-04-08T02:14:59.125Z,101156.28
2023-04-08T02:20:27.311Z,101149.41
2023-04-08T02:25:50.392Z,101165.56
2023-04-08T02:31:13.048Z,101169.66
2023-04-08T02:36:35.194Z,101165.41
2023-04-08T02:41:57.140Z,101175.63
2023-04-08T02:47:18.984Z,101183.00
2023-04-08T02:52:40.829Z,101188.75
2023-04-08T02:58:02.733Z,101188.66
2023-04-08T03:03:24.674Z,101201.19
2023-04-08T03:08:46.594Z,101206.19
2023-04-08T03:14:08.575Z,101210.44
2023-04-08T03:19:30.442Z,101214.50
2023-04-08T03:24:52.463Z,101223.53
2023-04-08T03:30:14.411Z,101218.34
2023-04-08T03:35:36.717Z,101225.94
2023-04-08T03:40:58.704Z,101231.88
2023-04-08T03:46:20.589Z,101230.81
2023-04-08T03:51:42.496Z,101232.50
2023-04-08T03:57:04.444Z,101235.69
2023-04-08T04:02:26.569Z,101239.94
2023-04-08T04:07:48.673Z,101246.88
2023-04-08T04:13:10.641Z,101256.41
2023-04-08T04:18:32.537Z,101241.78
2023-04-08T04:23:54.751Z,101261.03
2023-04-08T04:29:16.641Z,101263.19
2023-04-08T04:34:38.752Z,101259.50
2023-04-08T04:40:00.579Z,101258.56
2023-04-08T04:45:22.437Z,101261.22
2023-04-08T04:50:44.425Z,101266.59
2023-04-08T04:56:06.491Z,101259.72
2023-04-08T05:01:28.478Z,101261.44
2023-04-08T05:06:50.615Z,101258.00
2023-04-08T05:12:12.479Z,101267.56
2023-04-08T05:17:34.354Z,101270.59
2023-04-08T05:22:56.353Z,101280.38
2023-04-08T05:28:18.237Z,101294.06
2023-04-08T05:33:40.035Z,101285.16
2023-04-08T05:39:03.321Z,101285.06
2023-04-08T05:44:25.468Z,101278.72
2023-04-08T05:49:47.887Z,101282.84
2023-04-08T05:55:11.760Z,101280.28
2023-04-08T06:00:33.903Z,101298.06
2023-04-08T06:05:55.814Z,101286.13
2023-04-08T06:11:18.310Z,101291.38
2023-04-08T06:16:40.193Z,101307.94
2023-04-08T06:22:02.076Z,101293.44
2023-04-08T06:27:24.028Z,101296.53
2023-04-08T06:32:45.961Z,101304.13
2023-04-08T06:38:07.825Z,101301.50
2023-04-08T06:43:29.709Z,101306.53
2023-04-08T06:48:51.869Z,101301.31
2023-04-08T06:54:13.970Z,101300.44
2023-04-08T06:59:35.805Z,101306.44
2023-04-08T07:04:57.675Z,101315.63
2023-04-08T07:10:19.625Z,101314.94
2023-04-08T07:15:41.650Z,101295.09
2023-04-08T07:21:03.683Z,101313.13
2023-04-08T07:26:25.576Z,101320.19
2023-04-08T07:31:47.472Z,101316.50
2023-04-08T07:37:09.396Z,101326.56
2023-04-08T07:42:31.256Z,101328.50
2023-04-08T07:47:53.126Z,101320.97
2023-04-08T07:53:15.106Z,101332.19
2023-04-08T07:58:37.172Z,101330.16
2023-04-08T08:03:59.515Z,101319.00
2023-04-08T08:09:21.660Z,101317.97
2023-04-08T08:14:43.566Z,101334.47
2023-04-08T08:20:06.327Z,101324.72
2023-04-08T08:25:28.201Z,101327.31
2023-04-08T08:30:50.050Z,101328.75
2023-04-08T08:36:12.164Z,101313.44
2023-04-08T08:41:34.694Z,101318.69
2023-04-08T08:46:56.725Z,101310.97
2023-04-08T08:52:18.823Z,101313.28
2023-04-08T08:57:40.700Z,101304.59
2023-04-08T09:03:19.120Z,101310.16
2023-04-08T09:08:41.471Z,101309.56
2023-04-08T09:14:03.540Z,101309.91
2023-04-08T09:19:25.394Z,101322.16
2023-04-08T09:24:47.613Z,101307.94
2023-04-08T09:30:18.804Z,101326.22
2023-04-08T09:35:40.768Z,101335.38
2023-04-08T09:41:07.560Z,101329.03
2023-04-08T09:46:36.700Z,101319.69
2023-04-08T09:52:07.395Z,101330.31
2023-04-08T09:57:50.491Z,101309.69
2023-04-08T10:03:30.063Z,101318.25
2023-04-08T10:08:52.091Z,101310.16
2023-04-08T10:14:13.972Z,101328.44
2023-04-08T10:19:40.044Z,101314.28
2023-04-08T10:25:17.658Z,101311.41
2023-04-08T10:30:41.465Z,101307.03
2023-04-08T10:36:11.863Z,101305.81
2023-04-08T10:41:33.859Z,101311.16
2023-04-08T10:46:55.863Z,101308.44
2023-04-08T10:52:17.781Z,101305.00
2023-04-08T10:57:39.718Z,101299.81
2023-04-08T11:03:07.005Z,101300.13
2023-04-08T11:08:33.862Z,101305.03
2023-04-08T11:13:57.103Z,101306.09
2023-04-08T11:19:20.037Z,101298.06
2023-04-08T11:24:42.337Z,101290.84
2023-04-08T11:30:04.852Z,101287.53
2023-04-08T11:35:30.282Z,101269.28
2023-04-08T11:40:56.283Z,101281.72
2023-04-08T11:46:18.257Z,101278.44
2023-04-08T11:52:00.121Z,101272.09
2023-04-08T11:57:30.891Z,101254.56
2023-04-08T12:02:52.865Z,101267.06
2023-04-08T12:08:14.824Z,101264.66
2023-04-08T12:13:36.680Z,101245.28
2023-04-08T12:18:58.534Z,101257.91
2023-04-08T12:24:20.469Z,101257.09
2023-04-08T12:29:42.484Z,101254.38
2023-04-08T12:35:04.711Z,101244.94
2023-04-08T12:40:26.516Z,101225.91
2023-04-08T12:45:48.411Z,101246.88
2023-04-08T12:51:10.406Z,101231.13
2023-04-08T12:56:32.452Z,101227.91
2023-04-08T13:01:54.572Z,101220.53
2023-04-08T13:07:16.516Z,101225.69
2023-04-08T13:12:38.346Z,101212.34
2023-04-08T13:18:00.292Z,101204.94
2023-04-08T13:23:22.123Z,101194.53
2023-04-08T13:28:55.901Z,101205.88
2023-04-08T13:34:18.911Z,101198.78
2023-04-08T13:39:40.740Z,101192.84
2023-04-08T13:45:02.733Z,101200.06
2023-04-08T13:50:24.697Z,101202.91
2023-04-08T13:55:46.511Z,101197.66
2023-04-08T14:01:08.392Z,101204.63
2023-04-08T14:06:30.230Z,101192.81
2023-04-08T14:11:52.086Z,101188.72
2023-04-08T14:17:14.102Z,101200.97
2023-04-08T14:22:36.079Z,101199.41
2023-04-08T14:27:59.023Z,101196.69
2023-04-08T14:33:20.977Z,101190.28
2023-04-08T14:38:42.780Z,101187.34
2023-04-08T14:44:04.795Z,101185.63
2023-04-08T14:49:26.725Z,101204.84
2023-04-08T14:54:48.741Z,101197.47
2023-04-08T15:00:11.012Z,101193.47
2023-04-08T15:05:35.462Z,101199.81
2023-04-08T15:10:58.523Z,101190.81
2023-04-08T15:16:20.439Z,101196.81
2023-04-08T15:21:42.345Z,101190.56
2023-04-08T15:27:04.190Z,101194.66
2023-04-08T15:32:26.295Z,101199.63
2023-04-08T15:37:48.161Z,101200.56
2023-04-08T15:43:10.121Z,101201.09
2023-04-08T15:48:32.014Z,101202.59
2023-04-08T15:53:53.840Z,101203.44
2023-04-08T15:59:15.691Z,101204.22
2023-04-08T16:04:37.637Z,101210.28
2023-04-08T16:09:59.546Z,101214.72
2023-04-08T16:15:21.487Z,101205.50
2023-04-08T16:20:43.355Z,101214.38
2023-04-08T16:26:05.530Z,101219.66
2023-04-08T16:31:27.400Z,101217.59
2023-04-08T16:36:49.333Z,101213.69
2023-04-08T16:42:11.228Z,101226.41
2023-04-08T16:47:33.836Z,101224.22
2023-04-08T16:52:55.855Z,101225.63
2023-04-08T16:58:17.693Z,101229.78
2023-04-08T17:03:39.988Z,101239.75
2023-04-08T17:09:02.671Z,101240.81
2023-04-08T17:14:24.701Z,101250.97
2023-04-08T17:19:46.618Z,101257.28
2023-04-08T17:25:08.855Z,101246.25
2023-04-08T17:30:30.702Z,101267.00
2023-04-08T17:35:53.361Z,101273.50
2023-04-08T17:41:21.582Z,101282.66
2023-04-08T17:46:52.064Z,101279.56
2023-04-08T17:52:13.879Z,101297.56
2023-04-08T17:57:35.764Z,101323.53
2023-04-08T18:02:57.783Z,101320.00
2023-04-08T18:08:19.770Z,101330.94
2023-04-08T18:13:41.671Z,101338.09
2023-04-08T18:19:03.519Z,101348.13
2023-04-08T18:24:25.392Z,101347.59
2023-04-08T18:29:47.216Z,101345.41
2023-04-08T18:35:09.660Z,101359.38
2023-04-08T18:40:31.624Z,101355.09
2023-04-08T18:45:53.477Z,101345.63
2023-04-08T18:51:16.009Z,101354.28
2023-04-08T18:56:37.905Z,101355.91
2023-04-08T19:01:59.932Z,101355.88
2023-04-08T19:07:22.061Z,101344.09
2023-04-08T19:12:43.913Z,101333.75
2023-04-08T19:18:05.813Z,101326.78
2023-04-08T19:23:27.641Z,101335.34
2023-04-08T19:28:49.884Z,101330.97
2023-04-08T19:34:11.916Z,101326.78
2023-04-08T19:39:33.900Z,101321.66
2023-04-08T19:44:55.832Z,101332.56
2023-04-08T19:50:17.694Z,101325.75
2023-04-08T19:55:39.557Z,101319.63
2023-04-08T20:01:01.494Z,101330.75
2023-04-08T20:06:23.339Z,101319.59
2023-04-08T20:11:45.265Z,101332.63
2023-04-08T20:17:07.330Z,101330.91
2023-04-08T20:22:29.150Z,101328.25
2023-04-08T20:27:50.992Z,101323.91
2023-04-08T20:33:12.926Z,101315.56
2023-04-08T20:38:34.717Z,101331.00
2023-04-08T20:43:56.519Z,101330.09
2023-04-08T20:49:18.799Z,101318.13
2023-04-08T20:54:40.662Z,101325.88
2023-04-08T21:00:03.043Z,101327.59
2023-04-08T21:05:25.221Z,101335.53
2023-04-08T21:10:47.143Z,101333.81
2023-04-08T21:16:09.338Z,101320.16
2023-04-08T21:21:31.155Z,101324.44
2023-04-08T21:26:53.434Z,101319.22
2023-04-08T21:32:15.310Z,101311.56
2023-04-08T21:37:37.279Z,101312.53
2023-04-08T21:42:59.511Z,101306.47
2023-04-08T21:48:21.441Z,101298.63
2023-04-08T21:53:43.702Z,101303.63
2023-04-08T21:59:05.640Z,101299.53
2023-04-08T22:04:27.478Z,101302.97
2023-04-08T22:09:49.284Z,101286.63
2023-04-08T22:15:11.451Z,101284.13
2023-04-08T22:20:33.281Z,101275.50
2023-04-08T22:25:55.158Z,101263.41
2023-04-08T22:31:17.022Z,101278.16
2023-04-08T22:36:38.869Z,101274.63
2023-04-08T22:42:00.705Z,101280.69
2023-04-08T22:47:22.582Z,101275.56
2023-04-08T22:52:44.420Z,101273.69
2023-04-08T22:58:06.327Z,101268.38
2023-04-08T23:03:28.272Z,101271.78
2023-04-08T23:08:50.291Z,101274.34
2023-04-08T23:14:12.353Z,101269.13
2023-04-08T23:19:34.160Z,101256.28
2023-04-08T23:24:56.344Z,101254.50
2023-04-08T23:30:18.360Z,101263.09
2023-04-08T23:35:40.241Z,101247.59
2023-04-08T23:41:02.057Z,101247.59
2023-04-08T23:46:23.910Z,101247.47
2023-04-08T23:51:45.754Z,101230.34
2023-04-08T23:57:07.575Z,101245.91
